sensor_id;sensor_type;location;lat;lon;timestamp;P1;durP1;ratioP1;P2;durP2;ratioP2
5295;SDS011;2670;42.720;23.336;2022-12-07T00:00:45;27.07;;;12.97;;
5295;SDS011;2670;42.720;23.336;2022-12-07T00:03:11;42.33;;;14.50;;
5295;SDS011;2670;42.720;23.336;2022-12-07T00:05:40;26.17;;;12.70;;
5295;SDS011;2670;42.720;23.336;2022-12-07T00:08:06;23.97;;;12.03;;
5295;SDS011;2670;42.720;23.336;2022-12-07T00:10:33;28.20;;;12.87;;
5295;SDS011;2670;42.720;23.336;2022-12-07T00:13:00;26.63;;;12.33;;
5295;SDS011;2670;42.720;23.336;2022-12-07T00:15:27;27.93;;;13.90;;
5295;SDS011;2670;42.720;23.336;2022-12-07T00:17:53;30.67;;;13.40;;
5295;SDS011;2670;42.720;23.336;2022-12-07T00:20:20;34.50;;;14.40;;
5295;SDS011;2670;42.720;23.336;2022-12-07T00:22:48;33.20;;;13.30;;
5295;SDS011;2670;42.720;23.336;2022-12-07T00:25:16;32.00;;;14.00;;
5295;SDS011;2670;42.720;23.336;2022-12-07T00:27:43;28.50;;;14.50;;
5295;SDS011;2670;42.720;23.336;2022-12-07T00:30:09;26.97;;;14.20;;
5295;SDS011;2670;42.720;23.336;2022-12-07T00:32:36;32.43;;;15.03;;
5295;SDS011;2670;42.720;23.336;2022-12-07T00:35:03;32.70;;;13.67;;
5295;SDS011;2670;42.720;23.336;2022-12-07T00:37:31;31.10;;;14.30;;
5295;SDS011;2670;42.720;23.336;2022-12-07T00:39:59;33.97;;;14.37;;
5295;SDS011;2670;42.720;23.336;2022-12-07T00:42:26;28.63;;;14.20;;
5295;SDS011;2670;42.720;23.336;2022-12-07T00:44:53;31.37;;;14.03;;
5295;SDS011;2670;42.720;23.336;2022-12-07T00:47:19;26.20;;;12.20;;
5295;SDS011;2670;42.720;23.336;2022-12-07T00:49:46;37.97;;;14.23;;
5295;SDS011;2670;42.720;23.336;2022-12-07T00:52:13;29.50;;;12.20;;
5295;SDS011;2670;42.720;23.336;2022-12-07T00:54:40;30.60;;;13.37;;
5295;SDS011;2670;42.720;23.336;2022-12-07T00:57:08;30.10;;;14.27;;
5295;SDS011;2670;42.720;23.336;2022-12-07T00:59:35;26.13;;;12.60;;
5295;SDS011;2670;42.720;23.336;2022-12-07T01:02:02;27.87;;;12.50;;
5295;SDS011;2670;42.720;23.336;2022-12-07T01:04:28;34.30;;;12.17;;
5295;SDS011;2670;42.720;23.336;2022-12-07T01:06:55;27.97;;;12.83;;
5295;SDS011;2670;42.720;23.336;2022-12-07T01:09:22;32.40;;;12.37;;
5295;SDS011;2670;42.720;23.336;2022-12-07T01:11:49;34.70;;;13.30;;
5295;SDS011;2670;42.720;23.336;2022-12-07T01:14:17;22.50;;;12.00;;
5295;SDS011;2670;42.720;23.336;2022-12-07T01:16:44;31.63;;;13.63;;
5295;SDS011;2670;42.720;23.336;2022-12-07T01:19:11;26.03;;;13.60;;
5295;SDS011;2670;42.720;23.336;2022-12-07T01:21:37;30.00;;;12.50;;
5295;SDS011;2670;42.720;23.336;2022-12-07T01:24:05;32.23;;;14.03;;
5295;SDS011;2670;42.720;23.336;2022-12-07T01:26:34;26.03;;;14.83;;
5295;SDS011;2670;42.720;23.336;2022-12-07T01:29:00;31.87;;;14.37;;
5295;SDS011;2670;42.720;23.336;2022-12-07T01:31:29;26.63;;;13.03;;
5295;SDS011;2670;42.720;23.336;2022-12-07T01:33:57;30.50;;;14.77;;
5295;SDS011;2670;42.720;23.336;2022-12-07T01:36:26;29.03;;;14.40;;
5295;SDS011;2670;42.720;23.336;2022-12-07T01:38:55;27.20;;;12.90;;
5295;SDS011;2670;42.720;23.336;2022-12-07T01:41:24;27.23;;;12.93;;
5295;SDS011;2670;42.720;23.336;2022-12-07T01:44:12;28.97;;;13.97;;
5295;SDS011;2670;42.720;23.336;2022-12-07T01:46:44;26.83;;;12.53;;
5295;SDS011;2670;42.720;23.336;2022-12-07T01:49:13;32.37;;;13.53;;
5295;SDS011;2670;42.720;23.336;2022-12-07T01:51:45;26.03;;;12.57;;
5295;SDS011;2670;42.720;23.336;2022-12-07T01:54:13;23.67;;;11.93;;
5295;SDS011;2670;42.720;23.336;2022-12-07T01:56:42;28.30;;;12.67;;
5295;SDS011;2670;42.720;23.336;2022-12-07T01:59:15;25.27;;;12.37;;
5295;SDS011;2670;42.720;23.336;2022-12-07T02:01:45;28.27;;;12.83;;
5295;SDS011;2670;42.720;23.336;2022-12-07T02:04:12;29.57;;;12.80;;
5295;SDS011;2670;42.720;23.336;2022-12-07T02:06:39;24.50;;;11.60;;
5295;SDS011;2670;42.720;23.336;2022-12-07T02:09:08;37.37;;;17.17;;
5295;SDS011;2670;42.720;23.336;2022-12-07T02:11:34;28.10;;;14.17;;
5295;SDS011;2670;42.720;23.336;2022-12-07T02:14:01;26.13;;;14.50;;
5295;SDS011;2670;42.720;23.336;2022-12-07T02:16:30;25.83;;;13.37;;
5295;SDS011;2670;42.720;23.336;2022-12-07T02:19:14;36.10;;;15.37;;
5295;SDS011;2670;42.720;23.336;2022-12-07T02:22:09;35.43;;;15.17;;
5295;SDS011;2670;42.720;23.336;2022-12-07T02:24:53;28.43;;;14.17;;
5295;SDS011;2670;42.720;23.336;2022-12-07T02:27:34;30.67;;;14.63;;
5295;SDS011;2670;42.720;23.336;2022-12-07T02:30:07;35.80;;;14.87;;
5295;SDS011;2670;42.720;23.336;2022-12-07T02:32:40;34.03;;;17.27;;
5295;SDS011;2670;42.720;23.336;2022-12-07T02:35:11;27.90;;;14.93;;
5295;SDS011;2670;42.720;23.336;2022-12-07T02:37:47;37.80;;;16.63;;
5295;SDS011;2670;42.720;23.336;2022-12-07T02:40:20;46.67;;;18.53;;
5295;SDS011;2670;42.720;23.336;2022-12-07T02:42:52;43.17;;;16.70;;
5295;SDS011;2670;42.720;23.336;2022-12-07T02:45:26;39.30;;;19.17;;
5295;SDS011;2670;42.720;23.336;2022-12-07T02:47:56;41.77;;;19.00;;
5295;SDS011;2670;42.720;23.336;2022-12-07T02:50:25;48.70;;;18.63;;
5295;SDS011;2670;42.720;23.336;2022-12-07T02:52:52;29.03;;;15.93;;
5295;SDS011;2670;42.720;23.336;2022-12-07T02:55:21;36.50;;;16.37;;
5295;SDS011;2670;42.720;23.336;2022-12-07T02:58:06;42.13;;;17.57;;
5295;SDS011;2670;42.720;23.336;2022-12-07T03:00:55;40.10;;;17.50;;
5295;SDS011;2670;42.720;23.336;2022-12-07T03:03:30;36.37;;;16.87;;
5295;SDS011;2670;42.720;23.336;2022-12-07T03:06:00;32.20;;;16.60;;
5295;SDS011;2670;42.720;23.336;2022-12-07T03:08:42;40.63;;;17.23;;
5295;SDS011;2670;42.720;23.336;2022-12-07T03:11:15;39.53;;;17.23;;
5295;SDS011;2670;42.720;23.336;2022-12-07T03:13:49;41.03;;;18.27;;
5295;SDS011;2670;42.720;23.336;2022-12-07T03:16:26;52.80;;;22.03;;
5295;SDS011;2670;42.720;23.336;2022-12-07T03:18:56;54.63;;;22.80;;
5295;SDS011;2670;42.720;23.336;2022-12-07T03:21:28;51.20;;;21.93;;
5295;SDS011;2670;42.720;23.336;2022-12-07T03:23:59;50.87;;;22.10;;
5295;SDS011;2670;42.720;23.336;2022-12-07T03:26:31;62.60;;;27.23;;
5295;SDS011;2670;42.720;23.336;2022-12-07T03:29:02;61.97;;;27.97;;
5295;SDS011;2670;42.720;23.336;2022-12-07T03:31:34;54.93;;;28.13;;
5295;SDS011;2670;42.720;23.336;2022-12-07T03:34:06;48.50;;;22.23;;
5295;SDS011;2670;42.720;23.336;2022-12-07T03:36:39;57.70;;;24.23;;
5295;SDS011;2670;42.720;23.336;2022-12-07T03:39:13;41.67;;;21.53;;
5295;SDS011;2670;42.720;23.336;2022-12-07T03:41:47;37.53;;;19.90;;
5295;SDS011;2670;42.720;23.336;2022-12-07T03:44:14;44.07;;;19.00;;
5295;SDS011;2670;42.720;23.336;2022-12-07T03:46:44;37.63;;;18.33;;
5295;SDS011;2670;42.720;23.336;2022-12-07T03:49:18;37.30;;;18.67;;
5295;SDS011;2670;42.720;23.336;2022-12-07T03:51:51;34.30;;;17.30;;
5295;SDS011;2670;42.720;23.336;2022-12-07T03:54:24;39.87;;;18.80;;
5295;SDS011;2670;42.720;23.336;2022-12-07T03:56:54;40.40;;;17.90;;
5295;SDS011;2670;42.720;23.336;2022-12-07T03:59:23;44.20;;;19.30;;
5295;SDS011;2670;42.720;23.336;2022-12-07T04:01:54;37.80;;;17.43;;
5295;SDS011;2670;42.720;23.336;2022-12-07T04:04:23;47.00;;;18.70;;
5295;SDS011;2670;42.720;23.336;2022-12-07T04:06:50;45.53;;;18.30;;
5295;SDS011;2670;42.720;23.336;2022-12-07T04:09:17;39.70;;;16.90;;
5295;SDS011;2670;42.720;23.336;2022-12-07T04:11:44;38.60;;;18.03;;
5295;SDS011;2670;42.720;23.336;2022-12-07T04:14:11;36.57;;;17.43;;
5295;SDS011;2670;42.720;23.336;2022-12-07T04:16:46;44.10;;;17.80;;
5295;SDS011;2670;42.720;23.336;2022-12-07T04:19:16;38.50;;;18.33;;
5295;SDS011;2670;42.720;23.336;2022-12-07T04:21:44;35.20;;;17.73;;
5295;SDS011;2670;42.720;23.336;2022-12-07T04:24:11;46.50;;;20.30;;
5295;SDS011;2670;42.720;23.336;2022-12-07T04:26:40;43.63;;;24.30;;
5295;SDS011;2670;42.720;23.336;2022-12-07T04:29:07;48.10;;;24.37;;
5295;SDS011;2670;42.720;23.336;2022-12-07T04:31:35;50.47;;;22.37;;
5295;SDS011;2670;42.720;23.336;2022-12-07T04:34:02;40.40;;;22.03;;
5295;SDS011;2670;42.720;23.336;2022-12-07T04:36:31;41.13;;;20.57;;
5295;SDS011;2670;42.720;23.336;2022-12-07T04:38:58;40.40;;;17.87;;
5295;SDS011;2670;42.720;23.336;2022-12-07T04:41:26;35.50;;;16.67;;
5295;SDS011;2670;42.720;23.336;2022-12-07T04:43:53;46.43;;;18.43;;
5295;SDS011;2670;42.720;23.336;2022-12-07T04:46:22;52.93;;;17.90;;
5295;SDS011;2670;42.720;23.336;2022-12-07T04:48:49;32.27;;;15.90;;
5295;SDS011;2670;42.720;23.336;2022-12-07T04:51:18;33.23;;;17.30;;
5295;SDS011;2670;42.720;23.336;2022-12-07T04:53:47;33.47;;;16.43;;
5295;SDS011;2670;42.720;23.336;2022-12-07T04:56:15;29.17;;;15.43;;
5295;SDS011;2670;42.720;23.336;2022-12-07T04:58:43;38.83;;;16.37;;
5295;SDS011;2670;42.720;23.336;2022-12-07T05:01:11;26.10;;;15.30;;
5295;SDS011;2670;42.720;23.336;2022-12-07T05:03:38;33.80;;;16.67;;
5295;SDS011;2670;42.720;23.336;2022-12-07T05:06:05;30.40;;;14.20;;
5295;SDS011;2670;42.720;23.336;2022-12-07T05:08:33;33.87;;;16.20;;
5295;SDS011;2670;42.720;23.336;2022-12-07T05:11:02;41.37;;;17.67;;
5295;SDS011;2670;42.720;23.336;2022-12-07T05:13:30;41.70;;;18.47;;
5295;SDS011;2670;42.720;23.336;2022-12-07T05:15:57;38.63;;;17.63;;
5295;SDS011;2670;42.720;23.336;2022-12-07T05:18:23;39.43;;;20.27;;
5295;SDS011;2670;42.720;23.336;2022-12-07T05:20:50;38.30;;;19.43;;
5295;SDS011;2670;42.720;23.336;2022-12-07T05:23:18;37.40;;;19.27;;
5295;SDS011;2670;42.720;23.336;2022-12-07T05:25:46;48.53;;;21.30;;
5295;SDS011;2670;42.720;23.336;2022-12-07T05:28:14;40.37;;;19.27;;
5295;SDS011;2670;42.720;23.336;2022-12-07T05:30:41;45.30;;;20.20;;
5295;SDS011;2670;42.720;23.336;2022-12-07T05:33:07;41.40;;;21.27;;
5295;SDS011;2670;42.720;23.336;2022-12-07T05:35:34;42.13;;;21.00;;
5295;SDS011;2670;42.720;23.336;2022-12-07T05:38:02;45.80;;;21.53;;
5295;SDS011;2670;42.720;23.336;2022-12-07T05:40:29;45.00;;;20.23;;
5295;SDS011;2670;42.720;23.336;2022-12-07T05:42:56;42.77;;;19.30;;
5295;SDS011;2670;42.720;23.336;2022-12-07T05:45:24;40.10;;;20.27;;
5295;SDS011;2670;42.720;23.336;2022-12-07T05:47:51;45.80;;;20.03;;
5295;SDS011;2670;42.720;23.336;2022-12-07T05:50:18;36.67;;;19.43;;
5295;SDS011;2670;42.720;23.336;2022-12-07T05:52:44;43.63;;;20.77;;
5295;SDS011;2670;42.720;23.336;2022-12-07T05:55:11;44.73;;;22.00;;
5295;SDS011;2670;42.720;23.336;2022-12-07T05:57:38;49.60;;;23.90;;
5295;SDS011;2670;42.720;23.336;2022-12-07T06:00:26;47.63;;;24.20;;
5295;SDS011;2670;42.720;23.336;2022-12-07T06:02:52;73.23;;;28.90;;
5295;SDS011;2670;42.720;23.336;2022-12-07T06:05:19;55.03;;;27.20;;
5295;SDS011;2670;42.720;23.336;2022-12-07T06:07:45;64.20;;;28.10;;
5295;SDS011;2670;42.720;23.336;2022-12-07T06:10:12;59.63;;;26.83;;
5295;SDS011;2670;42.720;23.336;2022-12-07T06:12:39;47.70;;;25.73;;
5295;SDS011;2670;42.720;23.336;2022-12-07T06:15:07;52.07;;;25.70;;
5295;SDS011;2670;42.720;23.336;2022-12-07T06:17:36;47.40;;;23.77;;
5295;SDS011;2670;42.720;23.336;2022-12-07T06:20:04;47.73;;;23.33;;
5295;SDS011;2670;42.720;23.336;2022-12-07T06:22:32;72.23;;;24.30;;
5295;SDS011;2670;42.720;23.336;2022-12-07T06:24:58;52.97;;;25.83;;
5295;SDS011;2670;42.720;23.336;2022-12-07T06:27:26;55.87;;;25.87;;
5295;SDS011;2670;42.720;23.336;2022-12-07T06:29:53;63.33;;;29.47;;
5295;SDS011;2670;42.720;23.336;2022-12-07T06:32:20;62.13;;;28.80;;
5295;SDS011;2670;42.720;23.336;2022-12-07T06:34:48;58.70;;;28.10;;
5295;SDS011;2670;42.720;23.336;2022-12-07T06:37:14;57.30;;;27.87;;
5295;SDS011;2670;42.720;23.336;2022-12-07T06:39:41;54.93;;;24.50;;
5295;SDS011;2670;42.720;23.336;2022-12-07T06:42:08;42.40;;;22.83;;
5295;SDS011;2670;42.720;23.336;2022-12-07T06:44:35;68.50;;;28.00;;
5295;SDS011;2670;42.720;23.336;2022-12-07T06:47:02;68.33;;;29.17;;
5295;SDS011;2670;42.720;23.336;2022-12-07T06:49:29;64.67;;;25.07;;
5295;SDS011;2670;42.720;23.336;2022-12-07T06:51:57;53.60;;;26.77;;
5295;SDS011;2670;42.720;23.336;2022-12-07T06:54:24;61.67;;;28.40;;
5295;SDS011;2670;42.720;23.336;2022-12-07T06:56:51;53.03;;;22.77;;
5295;SDS011;2670;42.720;23.336;2022-12-07T06:59:18;50.73;;;23.57;;
5295;SDS011;2670;42.720;23.336;2022-12-07T07:01:44;51.17;;;23.10;;
5295;SDS011;2670;42.720;23.336;2022-12-07T07:04:11;46.40;;;22.40;;
5295;SDS011;2670;42.720;23.336;2022-12-07T07:06:38;54.67;;;23.47;;
5295;SDS011;2670;42.720;23.336;2022-12-07T07:09:06;55.80;;;28.00;;
5295;SDS011;2670;42.720;23.336;2022-12-07T07:11:34;60.70;;;29.53;;
5295;SDS011;2670;42.720;23.336;2022-12-07T07:14:01;61.37;;;30.27;;
5295;SDS011;2670;42.720;23.336;2022-12-07T07:16:28;72.17;;;34.50;;
5295;SDS011;2670;42.720;23.336;2022-12-07T07:18:56;80.77;;;35.20;;
5295;SDS011;2670;42.720;23.336;2022-12-07T07:21:23;82.10;;;37.67;;
5295;SDS011;2670;42.720;23.336;2022-12-07T07:23:49;77.13;;;34.10;;
5295;SDS011;2670;42.720;23.336;2022-12-07T07:26:18;59.50;;;29.70;;
5295;SDS011;2670;42.720;23.336;2022-12-07T07:28:45;52.13;;;25.53;;
5295;SDS011;2670;42.720;23.336;2022-12-07T07:31:12;93.23;;;36.63;;
5295;SDS011;2670;42.720;23.336;2022-12-07T07:33:38;84.10;;;43.10;;
5295;SDS011;2670;42.720;23.336;2022-12-07T07:36:05;79.83;;;38.93;;
5295;SDS011;2670;42.720;23.336;2022-12-07T07:38:33;64.87;;;31.63;;
5295;SDS011;2670;42.720;23.336;2022-12-07T07:40:59;65.63;;;27.60;;
5295;SDS011;2670;42.720;23.336;2022-12-07T07:43:28;57.90;;;26.30;;
5295;SDS011;2670;42.720;23.336;2022-12-07T07:45:54;47.83;;;22.80;;
5295;SDS011;2670;42.720;23.336;2022-12-07T07:48:21;48.50;;;24.03;;
5295;SDS011;2670;42.720;23.336;2022-12-07T07:50:50;53.37;;;22.30;;
5295;SDS011;2670;42.720;23.336;2022-12-07T07:53:17;54.80;;;26.80;;
5295;SDS011;2670;42.720;23.336;2022-12-07T07:55:49;65.07;;;33.70;;
5295;SDS011;2670;42.720;23.336;2022-12-07T07:58:17;51.50;;;27.00;;
5295;SDS011;2670;42.720;23.336;2022-12-07T08:00:45;63.60;;;30.80;;
5295;SDS011;2670;42.720;23.336;2022-12-07T08:03:12;65.30;;;29.83;;
5295;SDS011;2670;42.720;23.336;2022-12-07T08:05:39;62.47;;;31.70;;
5295;SDS011;2670;42.720;23.336;2022-12-07T08:08:06;62.53;;;28.70;;
5295;SDS011;2670;42.720;23.336;2022-12-07T08:10:32;51.37;;;25.57;;
5295;SDS011;2670;42.720;23.336;2022-12-07T08:13:00;59.83;;;30.00;;
5295;SDS011;2670;42.720;23.336;2022-12-07T08:15:40;67.60;;;29.23;;
5295;SDS011;2670;42.720;23.336;2022-12-07T08:18:09;59.57;;;26.77;;
5295;SDS011;2670;42.720;23.336;2022-12-07T08:20:36;57.17;;;26.57;;
5295;SDS011;2670;42.720;23.336;2022-12-07T08:23:05;54.33;;;27.00;;
5295;SDS011;2670;42.720;23.336;2022-12-07T08:25:32;51.83;;;24.73;;
5295;SDS011;2670;42.720;23.336;2022-12-07T08:27:59;51.33;;;23.40;;
5295;SDS011;2670;42.720;23.336;2022-12-07T08:30:27;59.33;;;25.00;;
5295;SDS011;2670;42.720;23.336;2022-12-07T08:32:55;58.53;;;25.83;;
5295;SDS011;2670;42.720;23.336;2022-12-07T08:35:23;68.83;;;29.23;;
5295;SDS011;2670;42.720;23.336;2022-12-07T08:37:51;66.93;;;33.23;;
5295;SDS011;2670;42.720;23.336;2022-12-07T08:40:18;84.50;;;33.70;;
5295;SDS011;2670;42.720;23.336;2022-12-07T08:42:48;79.63;;;36.47;;
5295;SDS011;2670;42.720;23.336;2022-12-07T08:45:16;65.10;;;30.27;;
5295;SDS011;2670;42.720;23.336;2022-12-07T08:47:46;79.87;;;32.30;;
5295;SDS011;2670;42.720;23.336;2022-12-07T08:50:16;79.27;;;34.50;;
5295;SDS011;2670;42.720;23.336;2022-12-07T08:52:45;81.90;;;34.30;;
5295;SDS011;2670;42.720;23.336;2022-12-07T08:55:16;74.10;;;33.63;;
5295;SDS011;2670;42.720;23.336;2022-12-07T08:57:43;66.13;;;30.63;;
5295;SDS011;2670;42.720;23.336;2022-12-07T09:00:11;76.53;;;33.63;;
5295;SDS011;2670;42.720;23.336;2022-12-07T09:02:39;68.33;;;31.93;;
5295;SDS011;2670;42.720;23.336;2022-12-07T09:05:06;69.83;;;31.30;;
5295;SDS011;2670;42.720;23.336;2022-12-07T09:07:34;60.03;;;26.00;;
5295;SDS011;2670;42.720;23.336;2022-12-07T09:10:04;59.47;;;26.30;;
5295;SDS011;2670;42.720;23.336;2022-12-07T09:12:31;68.20;;;28.17;;
5295;SDS011;2670;42.720;23.336;2022-12-07T09:14:58;82.53;;;29.60;;
5295;SDS011;2670;42.720;23.336;2022-12-07T09:17:26;62.73;;;29.03;;
5295;SDS011;2670;42.720;23.336;2022-12-07T09:19:52;55.80;;;26.57;;
5295;SDS011;2670;42.720;23.336;2022-12-07T09:22:19;60.00;;;29.10;;
5295;SDS011;2670;42.720;23.336;2022-12-07T09:24:46;66.47;;;31.30;;
5295;SDS011;2670;42.720;23.336;2022-12-07T09:27:14;67.33;;;28.93;;
5295;SDS011;2670;42.720;23.336;2022-12-07T09:29:42;50.57;;;24.83;;
5295;SDS011;2670;42.720;23.336;2022-12-07T09:32:09;57.80;;;24.00;;
5295;SDS011;2670;42.720;23.336;2022-12-07T09:34:36;53.00;;;23.40;;
5295;SDS011;2670;42.720;23.336;2022-12-07T09:37:03;45.90;;;21.77;;
5295;SDS011;2670;42.720;23.336;2022-12-07T09:39:31;45.37;;;21.13;;
5295;SDS011;2670;42.720;23.336;2022-12-07T09:41:58;63.73;;;23.10;;
5295;SDS011;2670;42.720;23.336;2022-12-07T09:44:30;51.63;;;23.10;;
5295;SDS011;2670;42.720;23.336;2022-12-07T09:46:57;50.13;;;23.23;;
5295;SDS011;2670;42.720;23.336;2022-12-07T09:49:25;55.50;;;25.00;;
5295;SDS011;2670;42.720;23.336;2022-12-07T09:51:59;58.17;;;24.30;;
5295;SDS011;2670;42.720;23.336;2022-12-07T09:54:28;48.97;;;19.47;;
5295;SDS011;2670;42.720;23.336;2022-12-07T09:56:56;36.83;;;20.07;;
5295;SDS011;2670;42.720;23.336;2022-12-07T09:59:22;42.97;;;20.57;;
5295;SDS011;2670;42.720;23.336;2022-12-07T10:01:51;44.60;;;19.97;;
5295;SDS011;2670;42.720;23.336;2022-12-07T10:04:19;49.50;;;21.63;;
5295;SDS011;2670;42.720;23.336;2022-12-07T10:06:48;46.67;;;21.03;;
5295;SDS011;2670;42.720;23.336;2022-12-07T10:09:16;40.50;;;20.83;;
5295;SDS011;2670;42.720;23.336;2022-12-07T10:12:00;58.43;;;23.00;;
5295;SDS011;2670;42.720;23.336;2022-12-07T10:14:29;38.13;;;17.57;;
5295;SDS011;2670;42.720;23.336;2022-12-07T10:16:59;43.10;;;19.20;;
5295;SDS011;2670;42.720;23.336;2022-12-07T10:19:27;42.03;;;18.80;;
5295;SDS011;2670;42.720;23.336;2022-12-07T10:22:07;52.13;;;23.23;;
5295;SDS011;2670;42.720;23.336;2022-12-07T10:24:36;49.20;;;21.03;;
5295;SDS011;2670;42.720;23.336;2022-12-07T10:27:04;45.13;;;17.87;;
5295;SDS011;2670;42.720;23.336;2022-12-07T10:29:32;50.07;;;20.83;;
5295;SDS011;2670;42.720;23.336;2022-12-07T10:32:05;52.07;;;18.13;;
5295;SDS011;2670;42.720;23.336;2022-12-07T10:34:52;37.63;;;17.80;;
5295;SDS011;2670;42.720;23.336;2022-12-07T10:37:44;42.17;;;17.23;;
5295;SDS011;2670;42.720;23.336;2022-12-07T10:40:23;50.63;;;17.20;;
5295;SDS011;2670;42.720;23.336;2022-12-07T10:43:08;43.50;;;19.03;;
5295;SDS011;2670;42.720;23.336;2022-12-07T10:45:54;31.57;;;15.47;;
5295;SDS011;2670;42.720;23.336;2022-12-07T10:48:41;41.37;;;15.83;;
5295;SDS011;2670;42.720;23.336;2022-12-07T10:51:15;39.20;;;17.07;;
5295;SDS011;2670;42.720;23.336;2022-12-07T10:53:52;35.97;;;16.87;;
5295;SDS011;2670;42.720;23.336;2022-12-07T10:56:31;35.20;;;17.47;;
5295;SDS011;2670;42.720;23.336;2022-12-07T10:59:19;37.37;;;16.47;;
5295;SDS011;2670;42.720;23.336;2022-12-07T11:02:22;34.17;;;16.43;;
5295;SDS011;2670;42.720;23.336;2022-12-07T11:05:02;42.73;;;15.93;;
5295;SDS011;2670;42.720;23.336;2022-12-07T11:07:43;38.83;;;16.00;;
5295;SDS011;2670;42.720;23.336;2022-12-07T11:10:18;49.27;;;15.00;;
5295;SDS011;2670;42.720;23.336;2022-12-07T11:12:54;25.27;;;13.80;;
5295;SDS011;2670;42.720;23.336;2022-12-07T11:15:33;33.30;;;14.13;;
5295;SDS011;2670;42.720;23.336;2022-12-07T11:18:21;32.33;;;14.60;;
5295;SDS011;2670;42.720;23.336;2022-12-07T11:20:55;31.63;;;13.47;;
5295;SDS011;2670;42.720;23.336;2022-12-07T11:23:40;30.17;;;15.07;;
5295;SDS011;2670;42.720;23.336;2022-12-07T11:26:16;29.93;;;13.70;;
5295;SDS011;2670;42.720;23.336;2022-12-07T11:28:58;28.90;;;14.23;;
5295;SDS011;2670;42.720;23.336;2022-12-07T11:31:43;30.80;;;14.20;;
5295;SDS011;2670;42.720;23.336;2022-12-07T11:34:23;30.03;;;12.17;;
5295;SDS011;2670;42.720;23.336;2022-12-07T11:36:59;23.30;;;12.07;;
5295;SDS011;2670;42.720;23.336;2022-12-07T11:39:32;30.00;;;12.00;;
5295;SDS011;2670;42.720;23.336;2022-12-07T11:42:01;22.60;;;11.70;;
5295;SDS011;2670;42.720;23.336;2022-12-07T11:44:33;24.87;;;12.30;;
5295;SDS011;2670;42.720;23.336;2022-12-07T11:47:06;28.67;;;12.70;;
5295;SDS011;2670;42.720;23.336;2022-12-07T11:49:40;36.93;;;10.63;;
5295;SDS011;2670;42.720;23.336;2022-12-07T11:52:13;26.70;;;11.60;;
5295;SDS011;2670;42.720;23.336;2022-12-07T11:54:47;20.03;;;11.20;;
5295;SDS011;2670;42.720;23.336;2022-12-07T11:57:18;27.00;;;11.13;;
5295;SDS011;2670;42.720;23.336;2022-12-07T11:59:52;22.20;;;11.57;;
5295;SDS011;2670;42.720;23.336;2022-12-07T12:02:26;28.03;;;12.07;;
5295;SDS011;2670;42.720;23.336;2022-12-07T12:05:02;34.37;;;11.13;;
5295;SDS011;2670;42.720;23.336;2022-12-07T12:07:41;27.97;;;12.80;;
5295;SDS011;2670;42.720;23.336;2022-12-07T12:10:14;29.10;;;11.63;;
5295;SDS011;2670;42.720;23.336;2022-12-07T12:16:04;42.60;;;16.57;;
5295;SDS011;2670;42.720;23.336;2022-12-07T12:21:53;23.50;;;11.03;;
5295;SDS011;2670;42.720;23.336;2022-12-07T12:24:29;24.67;;;12.87;;
5295;SDS011;2670;42.720;23.336;2022-12-07T12:27:02;24.93;;;11.60;;
5295;SDS011;2670;42.720;23.336;2022-12-07T12:29:32;21.20;;;10.93;;
5295;SDS011;2670;42.720;23.336;2022-12-07T12:32:06;21.83;;;11.27;;
5295;SDS011;2670;42.720;23.336;2022-12-07T12:34:40;28.83;;;11.17;;
5295;SDS011;2670;42.720;23.336;2022-12-07T12:37:39;21.57;;;11.00;;
5295;SDS011;2670;42.720;23.336;2022-12-07T12:55:45;26.40;;;10.83;;
5295;SDS011;2670;42.720;23.336;2022-12-07T12:58:41;35.73;;;11.73;;
5295;SDS011;2670;42.720;23.336;2022-12-07T13:10:20;22.80;;;11.20;;
5295;SDS011;2670;42.720;23.336;2022-12-07T13:12:58;25.65;;;12.07;;
5295;SDS011;2670;42.720;23.336;2022-12-07T13:15:32;21.33;;;11.70;;
5295;SDS011;2670;42.720;23.336;2022-12-07T13:18:02;19.50;;;10.90;;
5295;SDS011;2670;42.720;23.336;2022-12-07T13:20:44;24.17;;;11.80;;
5295;SDS011;2670;42.720;23.336;2022-12-07T13:23:19;31.60;;;11.50;;
5295;SDS011;2670;42.720;23.336;2022-12-07T13:28:40;26.40;;;10.50;;
5295;SDS011;2670;42.720;23.336;2022-12-07T13:31:18;23.97;;;11.07;;
5295;SDS011;2670;42.720;23.336;2022-12-07T13:33:49;25.03;;;11.07;;
5295;SDS011;2670;42.720;23.336;2022-12-07T13:36:20;27.63;;;12.33;;
5295;SDS011;2670;42.720;23.336;2022-12-07T13:38:53;23.30;;;11.40;;
5295;SDS011;2670;42.720;23.336;2022-12-07T13:41:22;46.73;;;13.57;;
5295;SDS011;2670;42.720;23.336;2022-12-07T13:43:53;23.50;;;12.00;;
5295;SDS011;2670;42.720;23.336;2022-12-07T13:46:29;27.20;;;13.33;;
5295;SDS011;2670;42.720;23.336;2022-12-07T13:49:02;26.70;;;11.80;;
5295;SDS011;2670;42.720;23.336;2022-12-07T13:51:29;22.00;;;11.70;;
5295;SDS011;2670;42.720;23.336;2022-12-07T13:54:08;32.83;;;14.23;;
5295;SDS011;2670;42.720;23.336;2022-12-07T13:56:37;29.60;;;12.50;;
5295;SDS011;2670;42.720;23.336;2022-12-07T13:59:07;24.73;;;12.27;;
5295;SDS011;2670;42.720;23.336;2022-12-07T14:01:40;23.27;;;12.60;;
5295;SDS011;2670;42.720;23.336;2022-12-07T14:04:17;27.57;;;14.60;;
5295;SDS011;2670;42.720;23.336;2022-12-07T14:06:55;31.67;;;14.37;;
5295;SDS011;2670;42.720;23.336;2022-12-07T14:09:23;36.80;;;13.80;;
5295;SDS011;2670;42.720;23.336;2022-12-07T14:11:51;32.80;;;16.37;;
5295;SDS011;2670;42.720;23.336;2022-12-07T14:14:21;59.03;;;25.63;;
5295;SDS011;2670;42.720;23.336;2022-12-07T14:16:59;57.63;;;25.17;;
5295;SDS011;2670;42.720;23.336;2022-12-07T14:19:41;39.60;;;20.83;;
5295;SDS011;2670;42.720;23.336;2022-12-07T14:22:17;60.83;;;22.10;;
5295;SDS011;2670;42.720;23.336;2022-12-07T14:24:48;40.63;;;19.60;;
5295;SDS011;2670;42.720;23.336;2022-12-07T14:27:16;36.87;;;17.40;;
5295;SDS011;2670;42.720;23.336;2022-12-07T14:29:46;36.80;;;18.93;;
5295;SDS011;2670;42.720;23.336;2022-12-07T14:32:20;37.77;;;17.90;;
5295;SDS011;2670;42.720;23.336;2022-12-07T14:34:56;39.60;;;17.23;;
5295;SDS011;2670;42.720;23.336;2022-12-07T14:37:25;38.63;;;17.30;;
5295;SDS011;2670;42.720;23.336;2022-12-07T14:39:52;35.83;;;17.73;;
5295;SDS011;2670;42.720;23.336;2022-12-07T14:42:19;49.20;;;21.90;;
5295;SDS011;2670;42.720;23.336;2022-12-07T14:44:51;49.33;;;20.57;;
5295;SDS011;2670;42.720;23.336;2022-12-07T14:47:18;58.37;;;23.07;;
5295;SDS011;2670;42.720;23.336;2022-12-07T14:49:45;92.37;;;33.13;;
5295;SDS011;2670;42.720;23.336;2022-12-07T14:52:13;88.07;;;36.40;;
5295;SDS011;2670;42.720;23.336;2022-12-07T14:54:42;100.33;;;43.17;;
5295;SDS011;2670;42.720;23.336;2022-12-07T14:57:10;129.93;;;49.17;;
5295;SDS011;2670;42.720;23.336;2022-12-07T14:59:37;115.27;;;43.87;;
5295;SDS011;2670;42.720;23.336;2022-12-07T15:02:05;97.70;;;38.17;;
5295;SDS011;2670;42.720;23.336;2022-12-07T15:04:32;66.23;;;31.80;;
5295;SDS011;2670;42.720;23.336;2022-12-07T15:07:00;98.07;;;36.47;;
5295;SDS011;2670;42.720;23.336;2022-12-07T15:09:30;79.97;;;36.30;;
5295;SDS011;2670;42.720;23.336;2022-12-07T15:11:57;70.63;;;33.70;;
5295;SDS011;2670;42.720;23.336;2022-12-07T15:14:23;83.20;;;35.03;;
5295;SDS011;2670;42.720;23.336;2022-12-07T15:16:50;77.80;;;34.50;;
5295;SDS011;2670;42.720;23.336;2022-12-07T15:19:19;85.60;;;35.40;;
5295;SDS011;2670;42.720;23.336;2022-12-07T15:21:49;96.83;;;39.70;;
5295;SDS011;2670;42.720;23.336;2022-12-07T15:24:15;99.97;;;36.77;;
5295;SDS011;2670;42.720;23.336;2022-12-07T15:26:42;130.87;;;41.80;;